»·PEaware :: TEXAN22 KRND-KRND

TEXAN22 :: KRND-KRND

FLIGHT INFORMATION

Flight Status: Arrived
Operator: Unknown
More flights by this operator :: More flights under this callsign
Pilot: Indie I. (23343)
Aircraft: BEECH AIRCRAFT T-6A TEXAN
(TEX2)
More flights by this aircraft type
Origin: KRND Randolph AFB
United States
Destination: KRND Randolph AFB
United States
More flights between these airports :: More routes between these airports
Route: RND KSKF KSSF RND
File this flight plan on PilotEdge
Remarks: RVK6
Altitude:
(Current/Filed)
5,000ft
Speed:
(Current/Filed)
250kts
Departed: 28-Apr-20 11:47 AM
Arrived: 28-Apr-20 01:04 PM
Distance/Time
Traveled:
0nm/1:17
Distance/Time
To Go:
Arrived

Flight Plot

Page will automatically refresh every two minutes.

Flight plan parsing failed; only flown route is shown


Map Options




Map Legend


Flown Route
Filed Route
Departure Airport
Arrival Airport
Navaid (VOR, NDB)
Fix

Horizontal Profiles

Position Reports

Time Latitude Longitude Heading Altitude Ground
Speed
28-Apr-20 11:40 29.534873 -98.290305 254 765ft 0kts
28-Apr-20 11:41 29.534873 -98.290308 254 765ft 0kts
28-Apr-20 11:42 29.534872 -98.290310 254 765ft 0kts
28-Apr-20 11:43 29.534771 -98.291146 268 765ft 13kts
28-Apr-20 11:44 29.534761 -98.291588 268 765ft 0kts
28-Apr-20 11:45 29.534833 -98.292411 260 765ft 8kts
28-Apr-20 11:46 29.517017 -98.281395 160 1259ft 157kts
28-Apr-20 11:47 29.466704 -98.269217 168 3554ft 189kts
28-Apr-20 11:48 29.456957 -98.316026 288 5085ft 229kts
28-Apr-20 11:49 29.473588 -98.390855 283 5109ft 232kts
28-Apr-20 11:50 29.490632 -98.457745 285 4989ft 204kts
28-Apr-20 11:51 29.511019 -98.518348 321 5014ft 211kts
28-Apr-20 11:52 29.565797 -98.535183 346 3909ft 205kts
28-Apr-20 11:53 29.592377 -98.575519 254 3208ft 192kts
28-Apr-20 11:54 29.564972 -98.616100 189 3106ft 170kts
28-Apr-20 11:55 29.519657 -98.621996 200 3161ft 165kts
28-Apr-20 11:56 29.478305 -98.617068 163 2732ft 132kts
28-Apr-20 11:57 29.444199 -98.603665 157 1561ft 133kts
28-Apr-20 11:58 29.410963 -98.591248 160 997ft 121kts
28-Apr-20 11:59 29.379581 -98.579241 162 1214ft 153kts
28-Apr-20 12:00 29.344929 -98.606531 246 3122ft 195kts
28-Apr-20 12:01 29.311523 -98.648140 151 3079ft 206kts
28-Apr-20 12:02 29.292249 -98.586398 104 3045ft 212kts
28-Apr-20 12:03 29.277719 -98.520231 111 2743ft 190kts
28-Apr-20 12:04 29.264492 -98.466857 108 2450ft 157kts
28-Apr-20 12:05 29.247470 -98.421494 121 2556ft 163kts
28-Apr-20 12:06 29.219115 -98.388536 214 2218ft 152kts
28-Apr-20 12:07 29.233715 -98.423615 316 2346ft 133kts
28-Apr-20 12:08 29.264768 -98.446139 343 2167ft 135kts
28-Apr-20 12:09 29.301605 -98.456450 342 1169ft 126kts
28-Apr-20 12:10 29.323748 -98.479157 274 1191ft 124kts
28-Apr-20 12:11 29.339323 -98.485024 101 668ft 116kts
28-Apr-20 12:12 29.330929 -98.445381 98 1809ft 167kts
28-Apr-20 12:13 29.329753 -98.383123 78 3732ft 201kts
28-Apr-20 12:14 29.345324 -98.317184 77 4234ft 218kts
28-Apr-20 12:15 29.361914 -98.248008 74 3921ft 224kts
28-Apr-20 12:16 29.376900 -98.180518 76 4007ft 220kts
28-Apr-20 12:17 29.402137 -98.118227 56 4057ft 220kts
28-Apr-20 12:18 29.437541 -98.060839 54 3974ft 223kts
28-Apr-20 12:19 29.473794 -98.002772 53 3662ft 231kts
28-Apr-20 12:20 29.512460 -97.940783 53 2504ft 242kts
28-Apr-20 12:21 29.548885 -97.881704 54 2553ft 219kts
28-Apr-20 12:22 29.601757 -97.854072 13 2568ft 215kts
28-Apr-20 12:23 29.660290 -97.837402 13 2505ft 218kts
28-Apr-20 12:24 29.716644 -97.847280 344 2659ft 192kts
28-Apr-20 12:25 29.727832 -97.893255 256 2284ft 174kts
28-Apr-20 12:26 29.720758 -97.937267 261 2034ft 125kts
28-Apr-20 12:27 29.715751 -97.978869 259 1579ft 130kts
28-Apr-20 12:28 29.698505 -98.013712 223 1315ft 134kts
28-Apr-20 12:29 29.705376 -98.043449 315 845ft 113kts
28-Apr-20 12:30 29.700620 -98.051822 272 2033ft 164kts
28-Apr-20 12:31 29.719918 -98.027275 106 2699ft 230kts
28-Apr-20 12:32 29.722780 -97.962073 81 2410ft 182kts
28-Apr-20 12:33 29.748777 -97.919014 43 2458ft 162kts
28-Apr-20 12:34 29.734093 -97.906611 254 2519ft 158kts
28-Apr-20 12:35 29.721186 -97.957163 262 2558ft 170kts
28-Apr-20 12:36 29.745354 -97.948284 78 2642ft 166kts
28-Apr-20 12:37 29.754760 -97.896844 99 2548ft 153kts
28-Apr-20 12:38 29.729719 -97.912980 256 2500ft 169kts
28-Apr-20 12:39 29.720973 -97.965781 278 2454ft 171kts
28-Apr-20 12:40 29.726142 -98.025177 273 3584ft 220kts
28-Apr-20 12:41 29.731034 -98.094931 274 3540ft 217kts
28-Apr-20 12:42 29.735577 -98.164241 274 3548ft 217kts
28-Apr-20 12:43 29.741590 -98.229793 279 4156ft 204kts
28-Apr-20 12:44 29.751401 -98.292769 275 4222ft 200kts
28-Apr-20 12:45 29.743114 -98.356312 258 4140ft 201kts
28-Apr-20 12:46 29.704871 -98.386311 183 4098ft 176kts
28-Apr-20 12:47 29.659635 -98.375959 146 3551ft 160kts
28-Apr-20 12:48 29.628270 -98.355251 154 2797ft 116kts
28-Apr-20 12:49 29.598853 -98.335959 146 2279ft 130kts
28-Apr-20 12:50 29.567713 -98.315017 147 1544ft 123kts
28-Apr-20 12:51 29.537937 -98.295202 150 885ft 121kts
28-Apr-20 12:52 29.504852 -98.281209 224 1404ft 202kts
28-Apr-20 12:53 29.530587 -98.328612 329 1815ft 222kts
28-Apr-20 12:54 29.559992 -98.310298 147 1826ft 206kts
28-Apr-20 12:55 29.525896 -98.304543 329 1631ft 165kts
28-Apr-20 12:56 29.556773 -98.330939 258 2302ft 192kts
28-Apr-20 12:57 29.503602 -98.324193 159 2336ft 215kts
28-Apr-20 12:58 29.493939 -98.336091 1 1815ft 212kts
28-Apr-20 12:59 29.549982 -98.342039 330 1841ft 213kts
28-Apr-20 13:00 29.588259 -98.342182 100 1619ft 159kts
28-Apr-20 13:01 29.563469 -98.311802 151 1325ft 129kts
28-Apr-20 13:02 29.533168 -98.291928 149 766ft 96kts
28-Apr-20 13:03 29.526722 -98.286641 54 765ft 0kts
28-Apr-20 13:04 29.526723 -98.286640 54 765ft 0kts
28-Apr-20 13:05 29.526724 -98.286638 54 765ft 0kts
28-Apr-20 13:07 29.526725 -98.286636 54 765ft 0kts
28-Apr-20 13:08 29.526726 -98.286634 54 765ft 0kts
28-Apr-20 13:09 29.526728 -98.286632 54 765ft 0kts
28-Apr-20 13:10 29.528333 -98.286278 329 765ft 0kts
28-Apr-20 13:11 29.528335 -98.286279 329 765ft 0kts
28-Apr-20 13:12 29.528337 -98.286280 329 765ft 0kts

Navigation Log

Ident Type
Flight plan parsing failed, navigation log unavailable